Terminal Aerodrome Forecast
Issued by NWS

Home | Current Version | Previous Version | Graphics & Text | Print | Product List | Glossary Off
Versions: 1 2 3 4 5 6 7 8 9 10 11 12

000
FTUS42 KMHX 251859 AAA
TAFPGV
TAF AMD
KPGV 251859Z 2519/2618 21006KT P6SM VCSH SCT015 OVC035
      TEMPO 2519/2520 -RA SCT008 OVC015
     FM252000 VRB04KT 5SM -RA BR SCT007 OVC020
     FM252300 VRB03KT 3SM -RA BR BKN007 OVC015
     FM260400 03004KT 3SM BR VCSH OVC004
     FM261500 02007KT P6SM VCSH OVC007
     FM261700 02008KT P6SM VCSH OVC015
      AMD LTD TO CLD VIS AND WIND=

USA.gov is the U.S. government's official web portal to all federal, state and local government web resources and services.